Time;durP1;ratioP1;P1;durP2;ratioP2;P2;SDS_P1;SDS_P2;PMS_P1;PMS_P2;Temp;Humidity;BMP_temperature;BMP_pressure;BME280_temperature;BME280_humidity;BME280_pressure;Samples;Min_cycle;Max_cycle;Signal;HPM_P1;HPM_P2
2023/05/07 00:02:03;;;;;;;0.68;0.50;;;25.00;48.50;;;;;;5035162;28;20108;-65
2023/05/07 00:04:35;;;;;;;0.50;0.50;;;25.00;48.50;;;;;;5035110;28;20036;-67
2023/05/07 00:07:01;;;;;;;0.63;0.50;;;25.00;48.50;;;;;;5035978;28;20075;-67
2023/05/07 00:09:27;;;;;;;0.55;0.55;;;24.90;48.40;;;;;;5034819;28;20025;-68
2023/05/07 00:11:52;;;;;;;1.00;0.60;;;25.00;48.40;;;;;;5037554;28;20537;-67
2023/05/07 00:14:18;;;;;;;1.50;0.50;;;24.90;48.40;;;;;;5041569;28;20372;-67
2023/05/07 00:16:44;;;;;;;1.30;0.60;;;24.90;48.40;;;;;;5041562;28;20064;-66
2023/05/07 00:19:09;;;;;;;0.60;0.55;;;24.90;48.40;;;;;;5039229;28;20040;-66
2023/05/07 00:21:35;;;;;;;0.90;0.60;;;24.90;48.40;;;;;;5037492;28;20064;-66
2023/05/07 00:24:01;;;;;;;0.60;0.60;;;24.90;48.40;;;;;;5037814;28;20025;-67
2023/05/07 00:26:26;;;;;;;0.90;0.60;;;24.90;48.40;;;;;;5042089;28;20032;-67
2023/05/07 00:28:52;;;;;;;0.52;0.50;;;24.90;48.80;;;;;;5040472;28;20055;-67
2023/05/07 00:31:17;;;;;;;1.48;0.60;;;24.90;48.30;;;;;;5039657;28;20025;-67
2023/05/07 00:33:43;;;;;;;0.50;0.50;;;24.90;48.30;;;;;;5037494;28;20102;-68
2023/05/07 00:36:08;;;;;;;0.65;0.50;;;24.90;48.30;;;;;;5040588;28;20025;-66
2023/05/07 00:38:34;;;;;;;0.63;0.63;;;24.90;48.30;;;;;;5040544;28;20021;-66
2023/05/07 00:41:00;;;;;;;0.60;0.60;;;24.80;48.30;;;;;;5040380;28;20021;-68
2023/05/07 00:43:27;;;;;;;0.80;0.60;;;24.80;48.30;;;;;;5036703;28;20104;-67
2023/05/07 00:45:52;;;;;;;0.47;0.40;;;24.80;48.30;;;;;;5038918;28;20327;-67
2023/05/07 00:48:18;;;;;;;0.60;0.50;;;24.80;48.30;;;;;;5040537;28;20044;-66
2023/05/07 00:50:45;;;;;;;0.50;0.50;;;24.80;48.30;;;;;;5038905;28;20021;-66
2023/05/07 00:53:11;;;;;;;0.43;0.38;;;24.80;48.30;;;;;;5039561;28;20016;-66
2023/05/07 00:55:38;;;;;;;0.68;0.50;;;24.80;48.30;;;;;;5037915;28;20393;-66
2023/05/07 00:58:04;;;;;;;0.55;0.40;;;24.80;48.30;;;;;;5041931;28;20037;-66
2023/05/07 01:00:29;;;;;;;1.75;0.65;;;24.80;48.30;;;;;;5041108;28;20048;-66
2023/05/07 01:02:55;;;;;;;0.50;0.50;;;24.80;48.30;;;;;;5040555;28;20118;-66
2023/05/07 01:05:23;;;;;;;0.70;0.70;;;24.80;48.30;;;;;;5038694;28;20452;-66
2023/05/07 01:07:49;;;;;;;0.70;0.50;;;24.80;48.30;;;;;;5038514;28;20055;-66
2023/05/07 01:10:16;;;;;;;0.50;0.40;;;24.70;48.30;;;;;;5039048;28;20112;-66
2023/05/07 01:12:43;;;;;;;0.80;0.50;;;24.70;48.30;;;;;;5038843;28;20472;-64
2023/05/07 01:15:09;;;;;;;0.60;0.52;;;24.70;48.30;;;;;;5037223;28;20055;-66
2023/05/07 01:17:36;;;;;;;0.50;0.40;;;24.70;48.30;;;;;;5041214;28;20034;-66
2023/05/07 01:20:04;;;;;;;0.77;0.50;;;24.70;48.30;;;;;;5037412;28;20024;-66
2023/05/07 01:22:32;;;;;;;0.40;0.40;;;24.70;48.40;;;;;;5037010;28;20393;-66
2023/05/07 01:24:59;;;;;;;0.50;0.50;;;24.70;48.30;;;;;;5038377;28;20053;-66
2023/05/07 01:27:25;;;;;;;0.50;0.50;;;24.70;48.30;;;;;;5038968;28;20025;-66
2023/05/07 01:29:50;;;;;;;0.50;0.50;;;24.60;48.30;;;;;;5038121;28;20787;-66
2023/05/07 01:32:25;;;;;;;0.60;0.50;;;24.60;48.30;;;;;;5037590;28;20026;-66
2023/05/07 01:34:52;;;;;;;0.50;0.50;;;24.70;48.40;;;;;;5039490;28;20087;-66
2023/05/07 01:37:18;;;;;;;0.40;0.40;;;24.60;48.30;;;;;;5042392;28;20049;-66
2023/05/07 01:39:44;;;;;;;0.70;0.40;;;24.60;48.30;;;;;;5036116;28;20040;-66
2023/05/07 01:42:10;;;;;;;0.40;0.40;;;24.60;48.30;;;;;;5039639;28;20033;-66
2023/05/07 01:44:36;;;;;;;0.98;0.50;;;24.60;48.30;;;;;;5043153;28;20017;-66
2023/05/07 01:47:02;;;;;;;0.40;0.40;;;24.60;48.30;;;;;;5044824;28;20032;-66
2023/05/07 01:49:28;;;;;;;0.52;0.52;;;24.60;48.40;;;;;;5038309;28;20022;-66
2023/05/07 01:51:53;;;;;;;0.57;0.50;;;24.60;48.40;;;;;;5037994;28;20034;-66
2023/05/07 01:54:20;;;;;;;0.70;0.40;;;24.50;48.30;;;;;;5037607;28;20390;-66
2023/05/07 01:56:47;;;;;;;0.45;0.45;;;24.50;48.30;;;;;;5041179;28;20121;-66
2023/05/07 01:59:13;;;;;;;0.50;0.50;;;24.50;48.30;;;;;;5039838;28;20419;-66
2023/05/07 02:01:38;;;;;;;0.40;0.40;;;24.50;48.30;;;;;;5038442;28;20033;-66
2023/05/07 02:04:04;;;;;;;0.40;0.40;;;24.50;48.40;;;;;;5037094;28;20334;-66
2023/05/07 02:06:31;;;;;;;0.52;0.52;;;24.50;48.40;;;;;;5036415;28;20025;-66
2023/05/07 02:08:56;;;;;;;0.40;0.40;;;24.50;48.30;;;;;;5039596;28;20373;-66
2023/05/07 02:11:22;;;;;;;0.50;0.50;;;24.50;48.30;;;;;;5039938;28;20029;-66
2023/05/07 02:13:47;;;;;;;0.57;0.40;;;24.50;48.30;;;;;;5040314;28;20029;-66
2023/05/07 02:16:14;;;;;;;0.52;0.50;;;24.50;48.30;;;;;;5037522;28;20117;-66
2023/05/07 02:18:39;;;;;;;0.50;0.50;;;24.50;48.30;;;;;;5036982;28;20136;-66
2023/05/07 02:21:05;;;;;;;0.40;0.40;;;24.50;48.30;;;;;;5038332;28;20178;-67
2023/05/07 02:23:30;;;;;;;0.50;0.50;;;24.50;48.40;;;;;;5039084;28;20445;-67
2023/05/07 02:25:56;;;;;;;0.70;0.40;;;24.50;48.40;;;;;;5041691;28;20388;-67
2023/05/07 02:28:22;;;;;;;0.57;0.50;;;24.40;48.30;;;;;;5036227;28;20103;-67
2023/05/07 02:30:47;;;;;;;0.40;0.40;;;24.40;48.30;;;;;;5039485;28;20627;-66
2023/05/07 02:33:13;;;;;;;0.60;0.40;;;24.40;48.40;;;;;;5045138;28;20030;-67
2023/05/07 02:35:39;;;;;;;0.40;0.40;;;24.50;48.40;;;;;;5038515;28;20141;-67
2023/05/07 02:38:05;;;;;;;0.50;0.40;;;24.50;48.40;;;;;;5037348;28;20425;-67
2023/05/07 02:40:33;;;;;;;0.88;0.50;;;24.40;48.40;;;;;;5036704;28;20044;-67
2023/05/07 02:42:59;;;;;;;0.40;0.40;;;24.40;48.40;;;;;;5038446;28;20031;-66
2023/05/07 02:45:25;;;;;;;0.57;0.50;;;24.40;48.40;;;;;;5038633;28;20025;-67
2023/05/07 02:47:50;;;;;;;0.55;0.32;;;24.40;48.30;;;;;;5039414;28;20389;-68
2023/05/07 02:50:16;;;;;;;0.30;0.30;;;24.40;48.40;;;;;;5035355;28;20353;-67
2023/05/07 02:52:42;;;;;;;0.82;0.50;;;24.30;48.30;;;;;;5038666;28;20034;-67
2023/05/07 02:55:08;;;;;;;0.30;0.30;;;24.40;48.40;;;;;;5038330;28;20033;-66
2023/05/07 02:57:33;;;;;;;0.82;0.47;;;24.40;48.40;;;;;;5037140;28;20461;-66
2023/05/07 02:59:59;;;;;;;0.63;0.60;;;24.30;48.40;;;;;;5037898;28;20021;-67
2023/05/07 03:02:25;;;;;;;0.50;0.50;;;24.30;48.40;;;;;;5037791;28;20036;-66
2023/05/07 03:04:51;;;;;;;0.52;0.45;;;24.30;48.40;;;;;;5037687;28;20101;-67
2023/05/07 03:07:17;;;;;;;0.50;0.47;;;24.30;48.40;;;;;;5037836;28;20036;-67
2023/05/07 03:09:42;;;;;;;0.40;0.40;;;24.30;48.40;;;;;;5038375;28;20029;-66
2023/05/07 03:12:08;;;;;;;0.50;0.50;;;24.30;48.40;;;;;;5037088;28;20109;-67
2023/05/07 03:14:33;;;;;;;0.40;0.40;;;24.30;48.40;;;;;;5037827;28;20033;-67
2023/05/07 03:16:59;;;;;;;0.40;0.40;;;24.30;48.40;;;;;;5038750;28;20029;-67
2023/05/07 03:19:24;;;;;;;0.63;0.60;;;24.30;48.40;;;;;;5033633;28;20079;-67
2023/05/07 03:21:50;;;;;;;0.40;0.40;;;24.30;48.40;;;;;;5035081;28;20039;-66
2023/05/07 03:24:16;;;;;;;0.73;0.50;;;24.30;48.50;;;;;;5036836;28;20373;-67
2023/05/07 03:26:41;;;;;;;0.38;0.38;;;24.20;48.40;;;;;;5036429;28;20104;-66
2023/05/07 03:29:07;;;;;;;0.80;0.60;;;24.30;48.50;;;;;;5038598;28;20140;-67
2023/05/07 03:31:32;;;;;;;0.40;0.40;;;24.20;48.40;;;;;;5037229;28;20094;-66
2023/05/07 03:33:58;;;;;;;0.80;0.50;;;24.20;48.40;;;;;;5037262;28;20030;-67
2023/05/07 03:36:26;;;;;;;0.68;0.50;;;24.20;48.50;;;;;;5039114;28;20485;-68
2023/05/07 03:38:52;;;;;;;0.40;0.40;;;24.20;48.50;;;;;;5039234;28;20044;-66
2023/05/07 03:41:17;;;;;;;0.40;0.40;;;24.20;48.50;;;;;;5039044;28;20025;-67
2023/05/07 03:43:43;;;;;;;0.73;0.60;;;24.20;48.50;;;;;;5040012;28;20036;-67
2023/05/07 03:46:08;;;;;;;0.40;0.40;;;24.20;48.50;;;;;;5038533;28;20484;-66
2023/05/07 03:48:34;;;;;;;0.50;0.50;;;24.20;48.50;;;;;;5041474;28;20124;-66
2023/05/07 03:51:00;;;;;;;0.47;0.40;;;24.20;48.50;;;;;;5040344;28;20338;-67
2023/05/07 03:53:25;;;;;;;0.55;0.45;;;24.20;48.50;;;;;;5039029;28;20569;-67
2023/05/07 03:55:51;;;;;;;0.70;0.40;;;24.20;48.50;;;;;;5041158;28;20033;-67
2023/05/07 03:58:17;;;;;;;1.00;0.57;;;24.10;48.50;;;;;;5039957;28;20025;-67
2023/05/07 04:00:42;;;;;;;1.25;0.50;;;24.10;48.50;;;;;;5037524;28;20029;-67
2023/05/07 04:03:08;;;;;;;0.40;0.40;;;24.10;48.50;;;;;;5041681;28;20029;-67
2023/05/07 04:05:34;;;;;;;0.50;0.50;;;24.10;48.50;;;;;;5037645;28;20115;-67
2023/05/07 04:08:00;;;;;;;0.60;0.50;;;24.10;48.50;;;;;;5040033;28;20120;-67
2023/05/07 04:10:26;;;;;;;0.57;0.50;;;24.10;48.50;;;;;;5039448;28;20054;-67
2023/05/07 04:12:52;;;;;;;0.30;0.30;;;24.10;48.50;;;;;;5043848;28;20029;-67
2023/05/07 04:15:17;;;;;;;0.40;0.40;;;24.10;48.50;;;;;;5039965;28;20439;-67
2023/05/07 04:17:43;;;;;;;0.63;0.40;;;24.10;48.50;;;;;;5040606;28;20204;-67
2023/05/07 04:20:10;;;;;;;0.40;0.40;;;24.00;48.50;;;;;;5038862;28;20240;-67
2023/05/07 04:22:36;;;;;;;0.50;0.50;;;24.00;48.50;;;;;;5040675;28;20036;-66
2023/05/07 04:25:02;;;;;;;0.40;0.40;;;24.10;48.60;;;;;;5039252;28;20025;-66
2023/05/07 04:27:28;;;;;;;0.47;0.45;;;24.00;48.60;;;;;;5038805;28;20032;-67
2023/05/07 04:29:55;;;;;;;0.47;0.40;;;24.00;48.50;;;;;;5038311;28;20025;-67
2023/05/07 04:32:22;;;;;;;0.50;0.50;;;24.10;48.60;;;;;;5045060;28;20374;-67
2023/05/07 04:34:47;;;;;;;0.50;0.50;;;24.00;48.50;;;;;;5041033;28;20029;-67
2023/05/07 04:37:13;;;;;;;0.68;0.50;;;24.00;48.60;;;;;;5038309;28;20375;-67
2023/05/07 04:39:38;;;;;;;0.70;0.60;;;24.00;48.60;;;;;;5040219;28;20029;-67
2023/05/07 04:42:07;;;;;;;1.13;0.60;;;24.00;48.60;;;;;;5038151;28;20385;-67
2023/05/07 04:44:34;;;;;;;0.60;0.50;;;24.00;49.10;;;;;;5040918;28;20026;-66
2023/05/07 04:46:59;;;;;;;0.52;0.50;;;24.00;48.60;;;;;;5036892;28;20708;-66
2023/05/07 04:49:25;;;;;;;0.40;0.40;;;24.00;48.60;;;;;;5041029;28;20056;-67
2023/05/07 04:51:51;;;;;;;0.50;0.50;;;23.90;48.60;;;;;;5040269;28;20036;-67
2023/05/07 04:54:16;;;;;;;0.40;0.40;;;24.00;48.60;;;;;;5041339;28;20075;-66
2023/05/07 04:56:42;;;;;;;0.50;0.50;;;23.90;48.60;;;;;;5042028;28;20481;-67
2023/05/07 04:59:07;;;;;;;0.43;0.40;;;23.90;48.60;;;;;;5037169;28;20124;-66
2023/05/07 05:01:33;;;;;;;0.40;0.40;;;23.90;48.60;;;;;;5040683;28;20032;-67
2023/05/07 05:04:00;;;;;;;0.55;0.40;;;23.90;48.60;;;;;;5038536;28;20013;-66
2023/05/07 05:06:25;;;;;;;0.50;0.50;;;23.90;48.60;;;;;;5038788;28;20447;-67
2023/05/07 05:08:51;;;;;;;0.60;0.52;;;23.90;48.60;;;;;;5034290;28;20156;-67
2023/05/07 05:11:17;;;;;;;0.50;0.50;;;23.90;48.60;;;;;;5038433;28;20474;-67
2023/05/07 05:13:42;;;;;;;0.50;0.50;;;23.90;48.60;;;;;;5039406;28;20032;-67
2023/05/07 05:16:08;;;;;;;0.70;0.50;;;23.90;48.60;;;;;;5041865;28;20040;-66
2023/05/07 05:18:35;;;;;;;0.40;0.40;;;23.90;48.60;;;;;;5036614;28;20443;-67
2023/05/07 05:21:00;;;;;;;0.60;0.52;;;23.90;48.60;;;;;;5040223;28;20036;-67
2023/05/07 05:23:27;;;;;;;0.50;0.50;;;23.90;48.60;;;;;;5040864;28;20026;-66
2023/05/07 05:25:59;;;;;;;0.50;0.50;;;23.90;48.60;;;;;;5038498;28;20028;-67
2023/05/07 05:28:25;;;;;;;0.68;0.60;;;23.90;48.60;;;;;;5042576;28;20485;-67
2023/05/07 05:30:51;;;;;;;0.70;0.60;;;23.90;48.60;;;;;;5037790;28;20025;-67
2023/05/07 05:33:16;;;;;;;0.70;0.52;;;23.90;48.70;;;;;;5037743;28;20045;-67
2023/05/07 05:35:42;;;;;;;0.47;0.47;;;23.90;48.70;;;;;;5036573;28;20049;-67
2023/05/07 05:38:08;;;;;;;0.80;0.43;;;23.90;48.70;;;;;;5037184;28;20112;-66
2023/05/07 05:40:33;;;;;;;0.47;0.47;;;23.80;48.60;;;;;;5037346;28;20029;-66
2023/05/07 05:42:59;;;;;;;0.55;0.50;;;23.80;48.60;;;;;;5038013;28;20045;-66
2023/05/07 05:45:25;;;;;;;0.55;0.50;;;23.80;48.60;;;;;;5034887;28;20025;-66
2023/05/07 05:47:51;;;;;;;0.50;0.50;;;23.80;48.60;;;;;;5037606;28;20100;-66
2023/05/07 05:50:17;;;;;;;0.75;0.50;;;23.80;48.70;;;;;;5037585;28;20043;-66
2023/05/07 05:52:42;;;;;;;0.40;0.40;;;23.80;48.70;;;;;;5035774;28;20091;-66
2023/05/07 05:55:08;;;;;;;0.50;0.50;;;23.80;48.70;;;;;;5038550;28;20385;-66
2023/05/07 05:57:34;;;;;;;0.65;0.50;;;23.80;48.70;;;;;;5039021;28;20392;-66
2023/05/07 06:00:01;;;;;;;0.50;0.50;;;23.80;48.70;;;;;;5036618;28;20120;-66
2023/05/07 06:02:26;;;;;;;0.43;0.30;;;23.80;48.70;;;;;;5036452;28;20045;-66
2023/05/07 06:04:52;;;;;;;0.73;0.50;;;23.80;48.70;;;;;;5040706;28;20391;-66
2023/05/07 06:07:18;;;;;;;0.57;0.43;;;23.80;48.70;;;;;;5039671;28;20048;-66
2023/05/07 06:09:44;;;;;;;0.40;0.40;;;23.80;48.70;;;;;;5037353;28;20025;-66
2023/05/07 06:12:09;;;;;;;0.63;0.45;;;23.80;48.70;;;;;;5037059;28;20064;-65
2023/05/07 06:14:35;;;;;;;0.63;0.43;;;23.80;48.80;;;;;;5039454;28;20417;-66
2023/05/07 06:17:00;;;;;;;0.60;0.60;;;23.80;48.70;;;;;;5037618;28;20139;-65
2023/05/07 06:19:27;;;;;;;0.45;0.40;;;23.70;48.70;;;;;;5039144;28;20830;-66
2023/05/07 06:21:53;;;;;;;0.52;0.50;;;23.70;48.70;;;;;;5035702;28;20052;-66
2023/05/07 06:24:19;;;;;;;0.47;0.40;;;23.70;48.70;;;;;;5037341;28;20075;-66
2023/05/07 06:26:45;;;;;;;0.40;0.40;;;23.70;48.80;;;;;;5037553;28;20427;-66
2023/05/07 06:29:10;;;;;;;0.60;0.40;;;23.70;48.80;;;;;;5036568;28;20033;-66
2023/05/07 06:31:36;;;;;;;0.40;0.40;;;23.70;48.70;;;;;;5039586;28;20050;-66
2023/05/07 06:34:02;;;;;;;0.50;0.50;;;23.70;48.80;;;;;;5036438;28;20033;-65
2023/05/07 06:36:28;;;;;;;0.57;0.40;;;23.70;48.80;;;;;;5068745;28;20116;-66
2023/05/07 06:38:53;;;;;;;1.13;0.70;;;23.70;48.80;;;;;;5069128;28;20029;-65
2023/05/07 06:41:20;;;;;;;0.57;0.50;;;23.70;48.80;;;;;;5038106;28;20493;-66
2023/05/07 06:43:45;;;;;;;0.55;0.45;;;23.70;48.80;;;;;;5037352;28;20029;-66
2023/05/07 06:46:11;;;;;;;0.50;0.50;;;23.70;48.80;;;;;;5040260;28;20131;-65
2023/05/07 06:48:37;;;;;;;0.50;0.50;;;23.70;48.80;;;;;;5038086;28;20025;-66
2023/05/07 06:51:02;;;;;;;0.95;0.60;;;23.70;48.80;;;;;;5038519;28;20387;-66
2023/05/07 06:53:29;;;;;;;1.00;0.60;;;23.70;48.80;;;;;;5034868;28;20075;-65
2023/05/07 06:55:55;;;;;;;0.50;0.50;;;23.70;48.80;;;;;;5038186;28;20033;-65
2023/05/07 06:58:20;;;;;;;0.43;0.43;;;23.70;48.80;;;;;;5039341;28;20393;-66
2023/05/07 07:00:46;;;;;;;0.90;0.60;;;23.70;48.80;;;;;;5044568;28;20021;-66
2023/05/07 07:03:11;;;;;;;0.52;0.50;;;23.70;48.80;;;;;;5038133;28;20029;-66
2023/05/07 07:05:37;;;;;;;0.65;0.60;;;23.70;48.80;;;;;;5037845;28;20025;-66
2023/05/07 07:08:02;;;;;;;0.98;0.60;;;23.70;48.80;;;;;;5036721;28;20638;-66
2023/05/07 07:10:28;;;;;;;0.82;0.57;;;23.70;48.80;;;;;;5038047;28;20116;-66
2023/05/07 07:12:54;;;;;;;0.57;0.50;;;23.70;48.90;;;;;;5038192;28;20346;-66
2023/05/07 07:15:20;;;;;;;1.10;0.68;;;23.70;48.90;;;;;;5038713;28;20114;-66
2023/05/07 07:17:46;;;;;;;0.60;0.60;;;23.70;48.90;;;;;;5037085;28;20026;-66
2023/05/07 07:20:12;;;;;;;0.60;0.50;;;23.70;48.80;;;;;;5042179;28;20025;-66
2023/05/07 07:22:37;;;;;;;0.60;0.57;;;23.70;48.90;;;;;;5042919;28;20056;-66
2023/05/07 07:25:03;;;;;;;0.88;0.60;;;23.60;48.80;;;;;;5042569;28;20093;-65
2023/05/07 07:27:29;;;;;;;1.08;0.63;;;23.60;48.80;;;;;;5041532;28;20021;-66
2023/05/07 07:29:54;;;;;;;0.57;0.50;;;23.60;48.80;;;;;;5042416;28;20033;-66
2023/05/07 07:32:20;;;;;;;0.77;0.60;;;23.60;48.80;;;;;;5043685;28;20443;-66
2023/05/07 07:34:46;;;;;;;1.67;0.75;;;23.60;48.80;;;;;;5041057;28;20056;-63
2023/05/07 07:37:11;;;;;;;0.60;0.60;;;23.60;48.80;;;;;;5041522;28;20060;-66
2023/05/07 07:39:40;;;;;;;1.05;0.68;;;23.60;48.80;;;;;;5040792;28;20041;-67
2023/05/07 07:42:06;;;;;;;1.45;0.80;;;23.60;48.80;;;;;;5041324;28;20472;-66
2023/05/07 07:44:32;;;;;;;1.17;0.68;;;23.60;48.80;;;;;;5043169;28;20029;-66
2023/05/07 07:46:57;;;;;;;0.77;0.60;;;23.60;48.80;;;;;;5041318;28;20037;-66
2023/05/07 07:49:23;;;;;;;2.67;1.08;;;23.60;48.80;;;;;;5040411;28;20025;-67
2023/05/07 07:51:48;;;;;;;1.15;0.80;;;23.60;48.90;;;;;;5045220;28;20039;-67
2023/05/07 07:54:14;;;;;;;0.88;0.70;;;23.60;48.80;;;;;;5039008;28;20047;-66
2023/05/07 07:56:40;;;;;;;0.80;0.70;;;23.60;48.80;;;;;;5041319;28;20491;-66
2023/05/07 07:59:05;;;;;;;0.98;0.88;;;23.60;48.80;;;;;;5041037;28;20346;-67
2023/05/07 08:01:31;;;;;;;1.33;0.70;;;23.60;48.90;;;;;;5038447;28;20120;-67
2023/05/07 08:04:00;;;;;;;0.90;0.70;;;23.60;48.80;;;;;;5041739;28;20109;-67
2023/05/07 08:06:26;;;;;;;1.10;0.70;;;23.60;48.90;;;;;;5043104;28;20021;-66
2023/05/07 08:08:52;;;;;;;0.85;0.65;;;23.60;48.90;;;;;;5038463;28;20099;-66
2023/05/07 08:11:17;;;;;;;1.35;0.80;;;23.60;48.90;;;;;;5040765;28;20044;-66
2023/05/07 08:13:43;;;;;;;0.70;0.70;;;23.60;48.90;;;;;;5040963;28;20452;-66
2023/05/07 08:16:09;;;;;;;1.27;0.70;;;23.60;48.90;;;;;;5037759;28;20083;-67
2023/05/07 08:18:34;;;;;;;1.10;0.80;;;23.60;49.40;;;;;;5040825;28;20064;-66
2023/05/07 08:21:01;;;;;;;1.17;0.80;;;23.60;48.90;;;;;;5036076;28;20030;-65
2023/05/07 08:23:26;;;;;;;1.85;0.80;;;23.60;48.90;;;;;;5038064;28;20144;-66
2023/05/07 08:25:52;;;;;;;1.45;0.80;;;23.60;48.90;;;;;;5039491;28;20129;-66
2023/05/07 08:28:19;;;;;;;0.88;0.63;;;23.60;48.90;;;;;;5041708;28;20036;-66
2023/05/07 08:30:44;;;;;;;0.77;0.65;;;23.60;48.90;;;;;;5040605;28;20033;-67
2023/05/07 08:33:10;;;;;;;0.73;0.70;;;23.60;48.90;;;;;;5036975;28;20381;-67
2023/05/07 08:35:36;;;;;;;0.93;0.75;;;23.60;48.90;;;;;;5042013;28;20109;-67
2023/05/07 08:38:01;;;;;;;0.80;0.70;;;23.60;48.90;;;;;;5040279;28;20124;-67
2023/05/07 08:40:38;;;;;;;1.10;0.80;;;23.60;48.90;;;;;;5041192;28;20485;-66
2023/05/07 08:43:06;;;;;;;0.85;0.80;;;23.60;49.40;;;;;;5038179;28;20112;-66
2023/05/07 08:45:33;;;;;;;1.58;0.90;;;23.60;48.90;;;;;;5042829;28;20442;-67
2023/05/07 08:48:02;;;;;;;0.75;0.73;;;23.60;48.90;;;;;;5042401;28;20022;-67
2023/05/07 08:50:28;;;;;;;0.70;0.70;;;23.60;48.90;;;;;;5038774;28;20563;-67
2023/05/07 08:52:53;;;;;;;0.73;0.70;;;23.60;48.90;;;;;;5043269;28;20033;-67
2023/05/07 08:55:20;;;;;;;1.23;1.00;;;23.60;48.90;;;;;;5041768;28;20089;-66
2023/05/07 08:57:46;;;;;;;1.27;0.90;;;23.60;48.90;;;;;;5040074;28;20029;-66
2023/05/07 09:00:12;;;;;;;1.30;0.90;;;23.60;48.90;;;;;;5038348;28;20560;-65
2023/05/07 09:02:38;;;;;;;1.30;0.80;;;23.60;48.90;;;;;;5036827;28;20033;-66
2023/05/07 09:05:04;;;;;;;1.02;0.80;;;23.60;48.90;;;;;;5038731;28;20468;-66
2023/05/07 09:07:30;;;;;;;0.80;0.70;;;23.60;48.90;;;;;;5036707;28;20033;-66
2023/05/07 09:09:57;;;;;;;0.93;0.75;;;23.60;48.90;;;;;;5039950;28;20543;-66
2023/05/07 09:12:22;;;;;;;0.95;0.85;;;23.60;48.90;;;;;;5036669;28;20393;-66
2023/05/07 09:14:48;;;;;;;1.42;0.88;;;23.60;49.00;;;;;;5040240;28;20025;-66
2023/05/07 09:17:16;;;;;;;1.45;0.90;;;23.60;49.00;;;;;;5039141;28;20198;-66
2023/05/07 09:19:47;;;;;;;1.25;1.05;;;23.60;49.00;;;;;;5040758;28;20037;-67
2023/05/07 09:22:13;;;;;;;1.23;0.90;;;23.60;49.00;;;;;;5040137;28;20025;-67
2023/05/07 09:24:38;;;;;;;1.40;0.80;;;23.60;49.00;;;;;;5038515;28;20056;-67
2023/05/07 09:27:05;;;;;;;0.85;0.77;;;23.60;49.00;;;;;;5039963;28;20370;-67
2023/05/07 09:29:35;;;;;;;1.15;0.90;;;23.60;49.00;;;;;;5039827;28;20554;-67
2023/05/07 09:32:05;;;;;;;1.13;0.90;;;23.50;49.00;;;;;;5039117;28;20049;-67
2023/05/07 09:34:31;;;;;;;1.40;1.00;;;23.50;49.00;;;;;;5039835;28;20033;-67
2023/05/07 09:37:01;;;;;;;0.73;0.70;;;23.60;49.10;;;;;;5037589;28;20600;-67
2023/05/07 09:39:38;;;;;;;1.42;0.90;;;23.60;49.10;;;;;;5038153;28;20128;-67
2023/05/07 09:42:04;;;;;;;1.20;0.93;;;23.60;49.10;;;;;;5044967;28;20021;-67
2023/05/07 09:44:32;;;;;;;1.65;1.10;;;23.60;49.10;;;;;;5036804;28;20306;-67
2023/05/07 09:47:00;;;;;;;1.30;0.98;;;23.50;49.10;;;;;;5037139;28;20036;-67
2023/05/07 09:49:29;;;;;;;1.07;0.90;;;23.60;49.10;;;;;;5037305;28;20064;-67
2023/05/07 09:51:56;;;;;;;0.93;0.88;;;23.60;49.10;;;;;;5038992;28;20125;-67
2023/05/07 09:54:22;;;;;;;1.35;0.95;;;23.60;49.10;;;;;;5037720;28;20068;-67
2023/05/07 09:56:52;;;;;;;1.63;1.00;;;23.50;49.10;;;;;;5039063;28;20049;-67
2023/05/07 09:59:20;;;;;;;1.25;0.80;;;23.60;49.20;;;;;;5038857;28;20029;-67
2023/05/07 10:01:45;;;;;;;1.30;0.90;;;23.60;49.20;;;;;;5039628;28;20497;-67
2023/05/07 10:04:12;;;;;;;1.33;1.00;;;23.50;49.10;;;;;;5039458;28;20070;-67
2023/05/07 10:06:38;;;;;;;1.20;0.90;;;23.60;49.20;;;;;;5037525;28;20047;-67
2023/05/07 10:09:07;;;;;;;1.58;1.00;;;23.50;49.20;;;;;;5037340;28;20497;-67
2023/05/07 10:11:36;;;;;;;1.33;1.05;;;23.50;49.20;;;;;;5038016;28;20041;-67
2023/05/07 10:14:05;;;;;;;1.60;1.00;;;23.50;49.20;;;;;;5041410;28;20029;-67
2023/05/07 10:16:35;;;;;;;1.08;0.90;;;23.50;49.20;;;;;;5036348;28;20056;-67
2023/05/07 10:19:02;;;;;;;1.52;1.00;;;23.60;49.20;;;;;;5036031;28;20102;-66
2023/05/07 10:21:31;;;;;;;2.17;1.00;;;23.50;49.20;;;;;;5036070;28;20029;-66
2023/05/07 10:24:14;;;;;;;1.13;1.03;;;23.60;49.20;;;;;;5035807;28;20017;-66
2023/05/07 10:26:45;;;;;;;1.50;1.10;;;23.50;49.20;;;;;;5038377;28;20272;-65
2023/05/07 10:29:29;;;;;;;1.40;0.95;;;23.60;49.20;;;;;;5034452;28;20543;-66
2023/05/07 10:32:02;;;;;;;1.08;0.90;;;23.50;49.20;;;;;;5034334;28;20107;-66
2023/05/07 10:34:34;;;;;;;1.63;1.05;;;23.50;49.20;;;;;;5037280;28;20079;-66
2023/05/07 10:37:00;;;;;;;1.33;0.90;;;23.60;49.30;;;;;;5037744;28;20036;-67
2023/05/07 10:39:27;;;;;;;1.10;0.90;;;23.50;49.20;;;;;;5035834;28;20151;-66
2023/05/07 10:41:52;;;;;;;1.27;1.00;;;23.60;49.20;;;;;;5037369;28;20025;-65
2023/05/07 10:44:31;;;;;;;1.05;0.90;;;23.60;49.20;;;;;;5037874;28;20032;-66
2023/05/07 10:47:18;;;;;;;1.20;0.90;;;23.60;49.20;;;;;;5038356;28;20025;-66
2023/05/07 10:49:43;;;;;;;1.38;1.00;;;23.60;49.20;;;;;;5045089;28;20423;-67
2023/05/07 10:52:20;;;;;;;1.40;0.93;;;23.60;49.20;;;;;;5036878;28;20100;-66
2023/05/07 10:54:47;;;;;;;1.20;0.90;;;23.60;49.20;;;;;;5033216;28;20501;-66
2023/05/07 10:57:35;;;;;;;1.45;1.00;;;23.60;49.20;;;;;;5038316;28;20136;-67
2023/05/07 11:00:03;;;;;;;1.30;0.90;;;23.60;49.20;;;;;;5038470;28;20104;-65
2023/05/07 11:03:03;;;;;;;1.73;1.00;;;23.60;49.20;;;;;;5038941;28;20087;-66
2023/05/07 11:05:30;;;;;;;1.13;0.80;;;23.60;49.20;;;;;;5039316;28;20024;-67
2023/05/07 11:08:04;;;;;;;1.48;0.98;;;23.60;49.20;;;;;;5038842;28;20036;-67
2023/05/07 11:10:48;;;;;;;1.48;1.02;;;23.60;49.20;;;;;;5037974;28;20473;-67
2023/05/07 11:13:14;;;;;;;1.42;0.85;;;23.60;49.20;;;;;;5037079;28;20469;-66
2023/05/07 11:15:47;;;;;;;1.63;1.00;;;23.60;49.70;;;;;;5036750;28;20566;-68
2023/05/07 11:18:17;;;;;;;1.38;0.88;;;23.60;49.20;;;;;;5039688;28;20049;-66
2023/05/07 11:20:45;;;;;;;;;;;23.60;49.20;;;;;;5041362;28;20037;-67
2023/05/07 11:23:49;;;;;;;1.80;0.95;;;23.60;49.20;;;;;;5037247;28;19932;-67
2023/05/07 11:26:15;;;;;;;1.33;0.90;;;23.70;49.20;;;;;;5044492;28;20116;-66
2023/05/07 11:28:43;;;;;;;0.82;0.80;;;23.60;49.20;;;;;;5039379;28;20077;-66
2023/05/07 11:31:09;;;;;;;1.70;0.82;;;23.60;49.20;;;;;;5037595;28;20025;-67
2023/05/07 11:33:36;;;;;;;1.23;0.90;;;23.60;49.20;;;;;;5037754;28;20510;-67
2023/05/07 11:36:05;;;;;;;1.45;0.70;;;23.60;49.20;;;;;;5037031;28;20112;-68
2023/05/07 11:38:35;;;;;;;1.15;0.93;;;23.60;49.20;;;;;;5036432;28;20107;-66
2023/05/07 11:41:01;;;;;;;0.90;0.80;;;23.70;49.30;;;;;;5039322;28;20489;-67
2023/05/07 11:43:27;;;;;;;1.13;0.80;;;23.60;49.20;;;;;;5037671;28;20025;-67
2023/05/07 11:45:53;;;;;;;1.50;1.00;;;23.60;49.20;;;;;;5038119;28;20044;-66
2023/05/07 11:48:21;;;;;;;0.85;0.80;;;23.60;49.20;;;;;;5034553;28;20116;-66
2023/05/07 11:51:01;;;;;;;1.15;0.82;;;23.60;49.20;;;;;;5070435;28;20088;-67
2023/05/07 11:53:35;;;;;;;1.23;0.90;;;23.70;49.20;;;;;;5051089;28;20087;-67
2023/05/07 11:56:05;;;;;;;1.42;0.90;;;23.60;49.20;;;;;;5039891;28;20049;-67
2023/05/07 11:58:31;;;;;;;1.00;0.80;;;23.60;49.20;;;;;;5037136;28;20065;-66
2023/05/07 12:00:57;;;;;;;1.58;0.80;;;23.60;49.20;;;;;;5037618;28;20036;-67
2023/05/07 12:03:22;;;;;;;2.80;0.90;;;23.70;49.20;;;;;;5037675;28;20473;-66
2023/05/07 12:05:48;;;;;;;1.13;0.90;;;23.60;49.10;;;;;;5040464;28;20031;-67
2023/05/07 12:08:18;;;;;;;1.00;0.82;;;23.70;49.20;;;;;;5040876;28;20017;-67
2023/05/07 12:10:45;;;;;;;1.50;0.82;;;23.70;49.20;;;;;;5040660;28;20033;-66
2023/05/07 12:13:25;;;;;;;1.13;0.80;;;23.70;49.20;;;;;;5039094;28;20060;-65
2023/05/07 12:15:52;;;;;;;1.42;0.70;;;23.70;49.20;;;;;;5041349;28;20033;-66
2023/05/07 12:18:18;;;;;;;1.00;0.77;;;23.70;49.20;;;;;;5038459;28;20025;-67
2023/05/07 12:20:45;;;;;;;0.88;0.70;;;23.70;49.20;;;;;;5043067;28;20068;-66
2023/05/07 12:23:11;;;;;;;1.80;0.80;;;23.70;49.20;;;;;;5038577;28;20029;-68
2023/05/07 12:25:38;;;;;;;1.42;0.90;;;23.70;49.10;;;;;;5041814;28;20315;-67
2023/05/07 12:28:04;;;;;;;0.88;0.70;;;23.70;48.70;;;;;;5055279;28;20025;-68
2023/05/07 12:30:38;;;;;;;1.20;0.80;;;23.70;48.20;;;;;;5040891;28;20024;-68
2023/05/07 12:33:04;;;;;;;3.05;1.10;;;23.70;48.00;;;;;;5039967;28;20159;-65
2023/05/07 12:35:39;;;;;;;0.90;0.80;;;23.70;48.10;;;;;;5040116;28;20656;-65
2023/05/07 12:38:13;;;;;;;1.23;0.93;;;23.70;48.20;;;;;;5037450;28;20473;-65
2023/05/07 12:40:53;;;;;;;0.88;0.80;;;23.70;48.10;;;;;;5069296;28;20481;-65
2023/05/07 12:43:26;;;;;;;1.45;0.95;;;23.70;48.10;;;;;;5038961;28;20551;-65
2023/05/07 12:45:54;;;;;;;2.35;0.80;;;23.70;48.20;;;;;;5040941;28;20155;-65
2023/05/07 12:48:21;;;;;;;1.40;1.00;;;23.70;48.20;;;;;;5037754;28;20061;-65